sensor_id;sensor_type;location;lat;lon;timestamp;P1;durP1;ratioP1;P2;durP2;ratioP2
28447;SDS011;15675;52.870;-1.416;2022-12-07T00:01:34;17.40;;;9.93;;
28447;SDS011;15675;52.870;-1.416;2022-12-07T00:04:04;23.63;;;10.38;;
28447;SDS011;15675;52.870;-1.416;2022-12-07T00:06:37;18.33;;;8.50;;
28447;SDS011;15675;52.870;-1.416;2022-12-07T00:09:05;21.70;;;7.95;;
28447;SDS011;15675;52.870;-1.416;2022-12-07T00:11:32;16.98;;;8.43;;
28447;SDS011;15675;52.870;-1.416;2022-12-07T00:13:59;21.55;;;8.07;;
28447;SDS011;15675;52.870;-1.416;2022-12-07T00:16:27;17.55;;;9.55;;
28447;SDS011;15675;52.870;-1.416;2022-12-07T00:18:54;24.08;;;8.88;;
28447;SDS011;15675;52.870;-1.416;2022-12-07T00:21:21;14.75;;;8.27;;
28447;SDS011;15675;52.870;-1.416;2022-12-07T00:23:49;20.88;;;8.18;;
28447;SDS011;15675;52.870;-1.416;2022-12-07T00:26:17;25.35;;;11.32;;
28447;SDS011;15675;52.870;-1.416;2022-12-07T00:28:48;27.60;;;11.93;;
28447;SDS011;15675;52.870;-1.416;2022-12-07T00:31:16;22.05;;;12.00;;
28447;SDS011;15675;52.870;-1.416;2022-12-07T00:33:43;30.70;;;14.05;;
28447;SDS011;15675;52.870;-1.416;2022-12-07T00:36:10;20.83;;;10.55;;
28447;SDS011;15675;52.870;-1.416;2022-12-07T00:38:37;19.17;;;10.10;;
28447;SDS011;15675;52.870;-1.416;2022-12-07T00:41:05;17.88;;;9.20;;
28447;SDS011;15675;52.870;-1.416;2022-12-07T00:43:32;19.88;;;9.43;;
28447;SDS011;15675;52.870;-1.416;2022-12-07T00:45:58;18.00;;;8.75;;
28447;SDS011;15675;52.870;-1.416;2022-12-07T00:48:23;15.82;;;9.18;;
28447;SDS011;15675;52.870;-1.416;2022-12-07T00:50:49;21.85;;;9.25;;
28447;SDS011;15675;52.870;-1.416;2022-12-07T00:53:16;22.05;;;10.00;;
28447;SDS011;15675;52.870;-1.416;2022-12-07T00:55:42;19.92;;;8.60;;
28447;SDS011;15675;52.870;-1.416;2022-12-07T00:58:08;23.80;;;8.35;;
28447;SDS011;15675;52.870;-1.416;2022-12-07T01:00:35;17.48;;;9.25;;
28447;SDS011;15675;52.870;-1.416;2022-12-07T01:03:02;19.67;;;10.80;;
28447;SDS011;15675;52.870;-1.416;2022-12-07T01:05:28;26.15;;;11.35;;
28447;SDS011;15675;52.870;-1.416;2022-12-07T01:07:54;25.70;;;11.27;;
28447;SDS011;15675;52.870;-1.416;2022-12-07T01:10:19;22.90;;;10.48;;
28447;SDS011;15675;52.870;-1.416;2022-12-07T01:12:45;22.30;;;9.45;;
28447;SDS011;15675;52.870;-1.416;2022-12-07T01:15:11;24.77;;;8.07;;
28447;SDS011;15675;52.870;-1.416;2022-12-07T01:17:36;14.13;;;7.05;;
28447;SDS011;15675;52.870;-1.416;2022-12-07T01:20:02;20.05;;;6.55;;
28447;SDS011;15675;52.870;-1.416;2022-12-07T01:22:28;22.05;;;8.52;;
28447;SDS011;15675;52.870;-1.416;2022-12-07T01:24:54;19.88;;;9.32;;
28447;SDS011;15675;52.870;-1.416;2022-12-07T01:27:20;20.35;;;10.57;;
28447;SDS011;15675;52.870;-1.416;2022-12-07T01:29:45;19.17;;;10.73;;
28447;SDS011;15675;52.870;-1.416;2022-12-07T01:32:11;28.02;;;11.40;;
28447;SDS011;15675;52.870;-1.416;2022-12-07T01:34:36;21.20;;;11.35;;
28447;SDS011;15675;52.870;-1.416;2022-12-07T01:37:02;25.45;;;12.57;;
28447;SDS011;15675;52.870;-1.416;2022-12-07T01:39:28;25.50;;;12.57;;
28447;SDS011;15675;52.870;-1.416;2022-12-07T01:41:53;30.98;;;12.18;;
28447;SDS011;15675;52.870;-1.416;2022-12-07T01:46:48;23.98;;;12.02;;
28447;SDS011;15675;52.870;-1.416;2022-12-07T01:51:54;21.27;;;11.50;;
28447;SDS011;15675;52.870;-1.416;2022-12-07T01:54:42;27.13;;;11.60;;
28447;SDS011;15675;52.870;-1.416;2022-12-07T01:57:10;32.08;;;11.60;;
28447;SDS011;15675;52.870;-1.416;2022-12-07T01:59:37;32.92;;;12.80;;
28447;SDS011;15675;52.870;-1.416;2022-12-07T02:02:04;29.60;;;13.70;;
28447;SDS011;15675;52.870;-1.416;2022-12-07T02:04:35;29.45;;;12.75;;
28447;SDS011;15675;52.870;-1.416;2022-12-07T02:07:01;27.00;;;12.55;;
28447;SDS011;15675;52.870;-1.416;2022-12-07T02:09:29;26.02;;;12.80;;
28447;SDS011;15675;52.870;-1.416;2022-12-07T02:11:54;27.23;;;13.30;;
28447;SDS011;15675;52.870;-1.416;2022-12-07T02:14:20;22.88;;;12.32;;
28447;SDS011;15675;52.870;-1.416;2022-12-07T02:27:52;29.92;;;12.70;;
28447;SDS011;15675;52.870;-1.416;2022-12-07T02:30:28;30.50;;;12.55;;
28447;SDS011;15675;52.870;-1.416;2022-12-07T02:33:09;32.72;;;13.18;;
28447;SDS011;15675;52.870;-1.416;2022-12-07T02:35:55;26.60;;;13.77;;
28447;SDS011;15675;52.870;-1.416;2022-12-07T02:43:57;29.23;;;14.73;;
28447;SDS011;15675;52.870;-1.416;2022-12-07T02:46:28;26.88;;;14.38;;
28447;SDS011;15675;52.870;-1.416;2022-12-07T02:48:57;35.58;;;13.63;;
28447;SDS011;15675;52.870;-1.416;2022-12-07T02:51:24;29.30;;;14.55;;
28447;SDS011;15675;52.870;-1.416;2022-12-07T02:53:51;29.95;;;14.75;;
28447;SDS011;15675;52.870;-1.416;2022-12-07T02:56:28;34.17;;;15.00;;
28447;SDS011;15675;52.870;-1.416;2022-12-07T03:01:52;24.50;;;14.55;;
28447;SDS011;15675;52.870;-1.416;2022-12-07T03:04:58;32.15;;;15.25;;
28447;SDS011;15675;52.870;-1.416;2022-12-07T03:15:43;32.38;;;16.00;;
28447;SDS011;15675;52.870;-1.416;2022-12-07T03:18:16;30.92;;;15.13;;
28447;SDS011;15675;52.870;-1.416;2022-12-07T03:20:45;37.22;;;15.63;;
28447;SDS011;15675;52.870;-1.416;2022-12-07T03:23:15;32.88;;;15.82;;
28447;SDS011;15675;52.870;-1.416;2022-12-07T03:25:45;30.30;;;15.27;;
28447;SDS011;15675;52.870;-1.416;2022-12-07T03:28:14;37.53;;;16.48;;
28447;SDS011;15675;52.870;-1.416;2022-12-07T03:31:00;32.50;;;15.88;;
28447;SDS011;15675;52.870;-1.416;2022-12-07T03:33:31;33.17;;;16.45;;
28447;SDS011;15675;52.870;-1.416;2022-12-07T03:36:06;35.50;;;17.17;;
28447;SDS011;15675;52.870;-1.416;2022-12-07T03:38:38;29.67;;;17.02;;
28447;SDS011;15675;52.870;-1.416;2022-12-07T03:41:22;33.72;;;18.52;;
28447;SDS011;15675;52.870;-1.416;2022-12-07T03:43:51;36.47;;;18.38;;
28447;SDS011;15675;52.870;-1.416;2022-12-07T03:51:54;33.03;;;15.88;;
28447;SDS011;15675;52.870;-1.416;2022-12-07T03:54:30;30.77;;;17.20;;
28447;SDS011;15675;52.870;-1.416;2022-12-07T03:57:01;30.42;;;16.95;;
28447;SDS011;15675;52.870;-1.416;2022-12-07T03:59:28;35.55;;;17.30;;
28447;SDS011;15675;52.870;-1.416;2022-12-07T04:01:56;31.63;;;16.63;;
28447;SDS011;15675;52.870;-1.416;2022-12-07T04:04:26;35.10;;;16.30;;
28447;SDS011;15675;52.870;-1.416;2022-12-07T04:06:53;35.80;;;15.80;;
28447;SDS011;15675;52.870;-1.416;2022-12-07T04:09:19;31.45;;;16.35;;
28447;SDS011;15675;52.870;-1.416;2022-12-07T04:11:45;37.90;;;18.27;;
28447;SDS011;15675;52.870;-1.416;2022-12-07T04:14:10;33.05;;;18.02;;
28447;SDS011;15675;52.870;-1.416;2022-12-07T04:16:55;33.05;;;17.95;;
28447;SDS011;15675;52.870;-1.416;2022-12-07T04:19:23;37.03;;;19.42;;
28447;SDS011;15675;52.870;-1.416;2022-12-07T04:21:50;43.47;;;18.80;;
28447;SDS011;15675;52.870;-1.416;2022-12-07T04:24:16;32.80;;;18.92;;
28447;SDS011;15675;52.870;-1.416;2022-12-07T04:26:41;36.78;;;17.98;;
28447;SDS011;15675;52.870;-1.416;2022-12-07T04:29:08;34.05;;;17.50;;
28447;SDS011;15675;52.870;-1.416;2022-12-07T04:31:34;36.38;;;17.95;;
28447;SDS011;15675;52.870;-1.416;2022-12-07T04:34:00;33.63;;;17.88;;
28447;SDS011;15675;52.870;-1.416;2022-12-07T04:36:26;37.60;;;17.73;;
28447;SDS011;15675;52.870;-1.416;2022-12-07T04:38:53;31.38;;;18.25;;
28447;SDS011;15675;52.870;-1.416;2022-12-07T04:41:19;56.47;;;19.48;;
28447;SDS011;15675;52.870;-1.416;2022-12-07T04:44:02;31.05;;;16.98;;
28447;SDS011;15675;52.870;-1.416;2022-12-07T04:46:29;35.55;;;16.20;;
28447;SDS011;15675;52.870;-1.416;2022-12-07T04:48:56;35.53;;;17.45;;
28447;SDS011;15675;52.870;-1.416;2022-12-07T04:51:24;36.97;;;18.17;;
28447;SDS011;15675;52.870;-1.416;2022-12-07T04:53:51;39.42;;;18.73;;
28447;SDS011;15675;52.870;-1.416;2022-12-07T04:56:17;29.05;;;16.10;;
28447;SDS011;15675;52.870;-1.416;2022-12-07T04:58:43;38.92;;;16.92;;
28447;SDS011;15675;52.870;-1.416;2022-12-07T05:01:10;36.45;;;17.35;;
28447;SDS011;15675;52.870;-1.416;2022-12-07T05:03:36;31.33;;;18.02;;
28447;SDS011;15675;52.870;-1.416;2022-12-07T05:06:02;36.08;;;18.15;;
28447;SDS011;15675;52.870;-1.416;2022-12-07T05:08:29;34.85;;;17.42;;
28447;SDS011;15675;52.870;-1.416;2022-12-07T05:10:55;38.60;;;18.95;;
28447;SDS011;15675;52.870;-1.416;2022-12-07T05:13:20;35.05;;;17.73;;
28447;SDS011;15675;52.870;-1.416;2022-12-07T05:15:46;33.53;;;18.08;;
28447;SDS011;15675;52.870;-1.416;2022-12-07T05:18:13;38.28;;;18.15;;
28447;SDS011;15675;52.870;-1.416;2022-12-07T05:20:38;38.88;;;17.63;;
28447;SDS011;15675;52.870;-1.416;2022-12-07T05:23:04;41.63;;;17.80;;
28447;SDS011;15675;52.870;-1.416;2022-12-07T05:25:30;43.50;;;18.50;;
28447;SDS011;15675;52.870;-1.416;2022-12-07T05:27:55;39.55;;;17.75;;
28447;SDS011;15675;52.870;-1.416;2022-12-07T05:30:22;33.45;;;18.17;;
28447;SDS011;15675;52.870;-1.416;2022-12-07T05:32:51;34.28;;;17.60;;
28447;SDS011;15675;52.870;-1.416;2022-12-07T05:35:16;38.17;;;19.48;;
28447;SDS011;15675;52.870;-1.416;2022-12-07T05:37:42;31.60;;;17.30;;
28447;SDS011;15675;52.870;-1.416;2022-12-07T05:40:08;42.35;;;17.70;;
28447;SDS011;15675;52.870;-1.416;2022-12-07T05:42:34;35.03;;;17.42;;
28447;SDS011;15675;52.870;-1.416;2022-12-07T05:45:00;34.75;;;18.35;;
28447;SDS011;15675;52.870;-1.416;2022-12-07T05:47:26;37.85;;;17.50;;
28447;SDS011;15675;52.870;-1.416;2022-12-07T05:49:51;36.72;;;17.25;;
28447;SDS011;15675;52.870;-1.416;2022-12-07T05:52:17;35.20;;;17.63;;
28447;SDS011;15675;52.870;-1.416;2022-12-07T05:54:42;38.38;;;16.90;;
28447;SDS011;15675;52.870;-1.416;2022-12-07T05:57:08;34.95;;;18.23;;
28447;SDS011;15675;52.870;-1.416;2022-12-07T05:59:34;37.33;;;17.60;;
28447;SDS011;15675;52.870;-1.416;2022-12-07T06:02:00;42.38;;;17.30;;
28447;SDS011;15675;52.870;-1.416;2022-12-07T06:04:29;42.10;;;17.23;;
28447;SDS011;15675;52.870;-1.416;2022-12-07T06:06:57;42.28;;;17.83;;
28447;SDS011;15675;52.870;-1.416;2022-12-07T06:09:23;27.85;;;16.58;;
28447;SDS011;15675;52.870;-1.416;2022-12-07T06:11:49;34.03;;;17.08;;
28447;SDS011;15675;52.870;-1.416;2022-12-07T06:14:34;33.30;;;15.20;;
28447;SDS011;15675;52.870;-1.416;2022-12-07T06:17:00;36.63;;;16.98;;
28447;SDS011;15675;52.870;-1.416;2022-12-07T06:19:25;37.65;;;15.98;;
28447;SDS011;15675;52.870;-1.416;2022-12-07T06:21:51;42.22;;;17.83;;
28447;SDS011;15675;52.870;-1.416;2022-12-07T06:24:17;40.78;;;17.67;;
28447;SDS011;15675;52.870;-1.416;2022-12-07T06:26:43;33.58;;;16.50;;
28447;SDS011;15675;52.870;-1.416;2022-12-07T06:29:10;37.30;;;18.20;;
28447;SDS011;15675;52.870;-1.416;2022-12-07T06:31:36;32.60;;;17.63;;
28447;SDS011;15675;52.870;-1.416;2022-12-07T06:34:03;31.42;;;16.58;;
28447;SDS011;15675;52.870;-1.416;2022-12-07T06:36:31;31.88;;;17.13;;
28447;SDS011;15675;52.870;-1.416;2022-12-07T06:38:57;29.35;;;16.13;;
28447;SDS011;15675;52.870;-1.416;2022-12-07T06:41:22;30.38;;;15.40;;
28447;SDS011;15675;52.870;-1.416;2022-12-07T06:43:48;33.28;;;15.05;;
28447;SDS011;15675;52.870;-1.416;2022-12-07T06:46:14;35.65;;;15.52;;
28447;SDS011;15675;52.870;-1.416;2022-12-07T06:48:41;34.47;;;16.05;;
28447;SDS011;15675;52.870;-1.416;2022-12-07T06:51:07;34.55;;;15.43;;
28447;SDS011;15675;52.870;-1.416;2022-12-07T06:53:33;35.10;;;16.63;;
28447;SDS011;15675;52.870;-1.416;2022-12-07T06:55:59;32.40;;;15.25;;
28447;SDS011;15675;52.870;-1.416;2022-12-07T06:58:24;25.90;;;14.25;;
28447;SDS011;15675;52.870;-1.416;2022-12-07T07:00:50;31.98;;;14.32;;
28447;SDS011;15675;52.870;-1.416;2022-12-07T07:03:16;28.10;;;13.07;;
28447;SDS011;15675;52.870;-1.416;2022-12-07T07:05:42;31.25;;;14.52;;
28447;SDS011;15675;52.870;-1.416;2022-12-07T07:08:08;28.75;;;13.68;;
28447;SDS011;15675;52.870;-1.416;2022-12-07T07:10:33;26.08;;;14.18;;
28447;SDS011;15675;52.870;-1.416;2022-12-07T07:13:00;32.65;;;14.68;;
28447;SDS011;15675;52.870;-1.416;2022-12-07T07:15:25;28.40;;;14.93;;
28447;SDS011;15675;52.870;-1.416;2022-12-07T07:17:51;30.88;;;15.32;;
28447;SDS011;15675;52.870;-1.416;2022-12-07T07:20:16;33.55;;;15.23;;
28447;SDS011;15675;52.870;-1.416;2022-12-07T07:22:42;28.52;;;13.52;;
28447;SDS011;15675;52.870;-1.416;2022-12-07T07:25:08;26.30;;;13.32;;
28447;SDS011;15675;52.870;-1.416;2022-12-07T07:27:33;28.25;;;13.02;;
28447;SDS011;15675;52.870;-1.416;2022-12-07T07:29:59;30.65;;;13.07;;
28447;SDS011;15675;52.870;-1.416;2022-12-07T07:32:24;32.42;;;14.48;;
28447;SDS011;15675;52.870;-1.416;2022-12-07T07:34:50;24.95;;;13.35;;
28447;SDS011;15675;52.870;-1.416;2022-12-07T07:37:15;34.17;;;14.50;;
28447;SDS011;15675;52.870;-1.416;2022-12-07T07:39:41;33.92;;;14.18;;
28447;SDS011;15675;52.870;-1.416;2022-12-07T07:42:06;26.83;;;13.10;;
28447;SDS011;15675;52.870;-1.416;2022-12-07T07:44:33;23.50;;;12.90;;
28447;SDS011;15675;52.870;-1.416;2022-12-07T07:46:59;23.98;;;12.05;;
28447;SDS011;15675;52.870;-1.416;2022-12-07T07:49:24;25.13;;;13.02;;
28447;SDS011;15675;52.870;-1.416;2022-12-07T07:51:50;23.60;;;12.07;;
28447;SDS011;15675;52.870;-1.416;2022-12-07T07:54:16;23.98;;;12.02;;
28447;SDS011;15675;52.870;-1.416;2022-12-07T07:56:41;31.20;;;12.70;;
28447;SDS011;15675;52.870;-1.416;2022-12-07T07:59:07;26.02;;;11.80;;
28447;SDS011;15675;52.870;-1.416;2022-12-07T08:01:33;20.48;;;11.05;;
28447;SDS011;15675;52.870;-1.416;2022-12-07T08:03:59;27.10;;;11.70;;
28447;SDS011;15675;52.870;-1.416;2022-12-07T08:06:24;36.88;;;12.82;;
28447;SDS011;15675;52.870;-1.416;2022-12-07T08:08:50;23.63;;;10.73;;
28447;SDS011;15675;52.870;-1.416;2022-12-07T08:11:16;23.77;;;11.77;;
28447;SDS011;15675;52.870;-1.416;2022-12-07T08:13:41;22.92;;;11.82;;
28447;SDS011;15675;52.870;-1.416;2022-12-07T08:16:08;21.88;;;10.75;;
28447;SDS011;15675;52.870;-1.416;2022-12-07T08:18:36;20.30;;;9.88;;
28447;SDS011;15675;52.870;-1.416;2022-12-07T08:21:03;24.55;;;12.05;;
28447;SDS011;15675;52.870;-1.416;2022-12-07T08:23:29;27.77;;;11.82;;
28447;SDS011;15675;52.870;-1.416;2022-12-07T08:25:59;30.83;;;11.95;;
28447;SDS011;15675;52.870;-1.416;2022-12-07T08:28:26;29.10;;;12.18;;
28447;SDS011;15675;52.870;-1.416;2022-12-07T08:30:52;28.20;;;12.75;;
28447;SDS011;15675;52.870;-1.416;2022-12-07T08:33:23;22.38;;;11.18;;
28447;SDS011;15675;52.870;-1.416;2022-12-07T08:35:48;25.02;;;12.05;;
28447;SDS011;15675;52.870;-1.416;2022-12-07T08:38:14;22.92;;;10.80;;
28447;SDS011;15675;52.870;-1.416;2022-12-07T08:40:39;24.40;;;10.68;;
28447;SDS011;15675;52.870;-1.416;2022-12-07T08:43:05;25.88;;;11.43;;
28447;SDS011;15675;52.870;-1.416;2022-12-07T08:45:30;22.55;;;10.98;;
28447;SDS011;15675;52.870;-1.416;2022-12-07T08:48:06;24.17;;;12.10;;
28447;SDS011;15675;52.870;-1.416;2022-12-07T08:50:35;23.65;;;11.13;;
28447;SDS011;15675;52.870;-1.416;2022-12-07T08:53:03;25.98;;;11.68;;
28447;SDS011;15675;52.870;-1.416;2022-12-07T08:55:30;22.58;;;10.73;;
28447;SDS011;15675;52.870;-1.416;2022-12-07T08:57:58;19.55;;;10.70;;
28447;SDS011;15675;52.870;-1.416;2022-12-07T09:00:24;26.52;;;10.85;;
28447;SDS011;15675;52.870;-1.416;2022-12-07T09:02:51;26.92;;;11.60;;
28447;SDS011;15675;52.870;-1.416;2022-12-07T09:05:16;22.98;;;10.63;;
28447;SDS011;15675;52.870;-1.416;2022-12-07T09:07:43;24.25;;;10.20;;
28447;SDS011;15675;52.870;-1.416;2022-12-07T09:10:11;25.15;;;11.38;;
28447;SDS011;15675;52.870;-1.416;2022-12-07T09:12:36;21.98;;;10.50;;
28447;SDS011;15675;52.870;-1.416;2022-12-07T09:15:02;23.50;;;10.38;;
28447;SDS011;15675;52.870;-1.416;2022-12-07T09:17:31;22.35;;;11.18;;
28447;SDS011;15675;52.870;-1.416;2022-12-07T09:19:58;25.40;;;10.13;;
28447;SDS011;15675;52.870;-1.416;2022-12-07T09:22:23;23.00;;;10.57;;
28447;SDS011;15675;52.870;-1.416;2022-12-07T09:24:49;19.00;;;9.70;;
28447;SDS011;15675;52.870;-1.416;2022-12-07T09:27:14;21.52;;;9.80;;
28447;SDS011;15675;52.870;-1.416;2022-12-07T09:29:41;25.35;;;9.63;;
28447;SDS011;15675;52.870;-1.416;2022-12-07T09:32:07;21.88;;;10.23;;
28447;SDS011;15675;52.870;-1.416;2022-12-07T09:34:32;17.13;;;8.88;;
28447;SDS011;15675;52.870;-1.416;2022-12-07T09:36:58;21.20;;;9.45;;
28447;SDS011;15675;52.870;-1.416;2022-12-07T09:39:26;18.52;;;9.10;;
28447;SDS011;15675;52.870;-1.416;2022-12-07T09:41:51;17.30;;;9.23;;
28447;SDS011;15675;52.870;-1.416;2022-12-07T09:44:21;22.67;;;9.65;;
28447;SDS011;15675;52.870;-1.416;2022-12-07T09:46:49;21.92;;;9.80;;
28447;SDS011;15675;52.870;-1.416;2022-12-07T09:49:22;22.90;;;9.38;;
28447;SDS011;15675;52.870;-1.416;2022-12-07T09:52:02;21.40;;;8.73;;
28447;SDS011;15675;52.870;-1.416;2022-12-07T09:54:43;17.48;;;8.80;;
28447;SDS011;15675;52.870;-1.416;2022-12-07T09:57:11;23.45;;;9.52;;
28447;SDS011;15675;52.870;-1.416;2022-12-07T09:59:37;22.58;;;9.75;;
28447;SDS011;15675;52.870;-1.416;2022-12-07T10:02:23;21.58;;;10.10;;
28447;SDS011;15675;52.870;-1.416;2022-12-07T10:04:59;22.38;;;9.30;;
28447;SDS011;15675;52.870;-1.416;2022-12-07T10:07:25;31.85;;;10.27;;
28447;SDS011;15675;52.870;-1.416;2022-12-07T10:09:50;18.77;;;8.10;;
28447;SDS011;15675;52.870;-1.416;2022-12-07T10:12:16;18.75;;;9.07;;
28447;SDS011;15675;52.870;-1.416;2022-12-07T10:14:55;19.60;;;9.15;;
28447;SDS011;15675;52.870;-1.416;2022-12-07T10:17:29;18.90;;;8.60;;
28447;SDS011;15675;52.870;-1.416;2022-12-07T10:20:34;18.23;;;7.15;;
28447;SDS011;15675;52.870;-1.416;2022-12-07T10:22:54;19.50;;;8.70;;
28447;SDS011;15675;52.870;-1.416;2022-12-07T10:25:26;17.50;;;9.23;;
28447;SDS011;15675;52.870;-1.416;2022-12-07T10:27:58;31.80;;;9.32;;
28447;SDS011;15675;52.870;-1.416;2022-12-07T10:33:56;26.58;;;12.25;;
28447;SDS011;15675;52.870;-1.416;2022-12-07T10:38:48;27.08;;;11.02;;
28447;SDS011;15675;52.870;-1.416;2022-12-07T10:41:25;22.13;;;9.98;;
28447;SDS011;15675;52.870;-1.416;2022-12-07T10:43:55;22.10;;;10.45;;
28447;SDS011;15675;52.870;-1.416;2022-12-07T11:00:23;28.42;;;10.82;;
28447;SDS011;15675;52.870;-1.416;2022-12-07T11:08:41;22.08;;;8.95;;
28447;SDS011;15675;52.870;-1.416;2022-12-07T11:13:58;17.88;;;9.70;;
28447;SDS011;15675;52.870;-1.416;2022-12-07T11:25:23;14.18;;;6.95;;
28447;SDS011;15675;52.870;-1.416;2022-12-07T11:28:09;19.20;;;7.63;;
28447;SDS011;15675;52.870;-1.416;2022-12-07T11:31:01;13.23;;;7.07;;
28447;SDS011;15675;52.870;-1.416;2022-12-07T11:33:29;17.05;;;6.70;;
28447;SDS011;15675;52.870;-1.416;2022-12-07T11:36:17;22.48;;;7.00;;
28447;SDS011;15675;52.870;-1.416;2022-12-07T11:38:54;16.88;;;6.10;;
28447;SDS011;15675;52.870;-1.416;2022-12-07T11:41:27;13.18;;;5.43;;
28447;SDS011;15675;52.870;-1.416;2022-12-07T11:44:06;14.57;;;6.20;;
28447;SDS011;15675;52.870;-1.416;2022-12-07T11:49:57;12.27;;;5.03;;
28447;SDS011;15675;52.870;-1.416;2022-12-07T11:52:35;14.90;;;5.38;;
28447;SDS011;15675;52.870;-1.416;2022-12-07T12:06:38;22.15;;;4.78;;
28447;SDS011;15675;52.870;-1.416;2022-12-07T12:09:06;13.82;;;5.38;;
28447;SDS011;15675;52.870;-1.416;2022-12-07T12:17:17;9.48;;;4.82;;
28447;SDS011;15675;52.870;-1.416;2022-12-07T12:20:15;15.88;;;4.38;;
28447;SDS011;15675;52.870;-1.416;2022-12-07T12:22:58;7.57;;;4.75;;
28447;SDS011;15675;52.870;-1.416;2022-12-07T12:25:34;12.10;;;4.93;;
28447;SDS011;15675;52.870;-1.416;2022-12-07T12:28:05;15.15;;;4.55;;
28447;SDS011;15675;52.870;-1.416;2022-12-07T12:30:38;11.93;;;4.50;;
28447;SDS011;15675;52.870;-1.416;2022-12-07T12:33:22;9.25;;;3.97;;
28447;SDS011;15675;52.870;-1.416;2022-12-07T12:46:59;12.82;;;3.55;;
28447;SDS011;15675;52.870;-1.416;2022-12-07T12:55:00;9.20;;;3.90;;
28447;SDS011;15675;52.870;-1.416;2022-12-07T12:57:37;10.40;;;4.47;;
28447;SDS011;15675;52.870;-1.416;2022-12-07T13:02:48;13.23;;;6.10;;
28447;SDS011;15675;52.870;-1.416;2022-12-07T13:05:22;11.68;;;6.47;;
28447;SDS011;15675;52.870;-1.416;2022-12-07T13:07:53;18.42;;;6.85;;
28447;SDS011;15675;52.870;-1.416;2022-12-07T13:20:57;17.45;;;8.45;;
28447;SDS011;15675;52.870;-1.416;2022-12-07T13:24:06;16.00;;;7.88;;
28447;SDS011;15675;52.870;-1.416;2022-12-07T13:28:43;16.35;;;7.80;;
28447;SDS011;15675;52.870;-1.416;2022-12-07T13:33:57;14.93;;;8.27;;
28447;SDS011;15675;52.870;-1.416;2022-12-07T13:38:57;16.92;;;8.43;;
28447;SDS011;15675;52.870;-1.416;2022-12-07T13:41:25;19.35;;;8.00;;
28447;SDS011;15675;52.870;-1.416;2022-12-07T13:44:13;22.95;;;7.88;;
28447;SDS011;15675;52.870;-1.416;2022-12-07T13:46:42;16.10;;;7.47;;
28447;SDS011;15675;52.870;-1.416;2022-12-07T13:49:21;16.73;;;7.70;;
28447;SDS011;15675;52.870;-1.416;2022-12-07T13:51:49;14.75;;;7.47;;
28447;SDS011;15675;52.870;-1.416;2022-12-07T13:54:16;17.08;;;8.02;;
28447;SDS011;15675;52.870;-1.416;2022-12-07T13:56:41;19.02;;;7.25;;
28447;SDS011;15675;52.870;-1.416;2022-12-07T13:59:14;13.60;;;6.85;;
28447;SDS011;15675;52.870;-1.416;2022-12-07T14:01:44;12.93;;;6.55;;
28447;SDS011;15675;52.870;-1.416;2022-12-07T14:04:24;15.35;;;5.45;;
28447;SDS011;15675;52.870;-1.416;2022-12-07T14:06:56;11.57;;;7.18;;
28447;SDS011;15675;52.870;-1.416;2022-12-07T14:09:24;12.48;;;6.03;;
28447;SDS011;15675;52.870;-1.416;2022-12-07T14:11:55;13.00;;;7.88;;
28447;SDS011;15675;52.870;-1.416;2022-12-07T14:14:23;12.20;;;7.18;;
28447;SDS011;15675;52.870;-1.416;2022-12-07T14:17:01;15.27;;;7.30;;
28447;SDS011;15675;52.870;-1.416;2022-12-07T14:22:26;14.85;;;7.50;;
28447;SDS011;15675;52.870;-1.416;2022-12-07T14:25:02;14.75;;;7.63;;
28447;SDS011;15675;52.870;-1.416;2022-12-07T14:27:38;11.95;;;6.00;;
28447;SDS011;15675;52.870;-1.416;2022-12-07T14:30:04;15.85;;;6.18;;
28447;SDS011;15675;52.870;-1.416;2022-12-07T14:32:30;11.55;;;5.35;;
28447;SDS011;15675;52.870;-1.416;2022-12-07T14:37:22;15.43;;;6.22;;
28447;SDS011;15675;52.870;-1.416;2022-12-07T14:39:48;10.40;;;5.35;;
28447;SDS011;15675;52.870;-1.416;2022-12-07T14:42:14;13.20;;;5.78;;
28447;SDS011;15675;52.870;-1.416;2022-12-07T14:44:40;15.77;;;6.57;;
28447;SDS011;15675;52.870;-1.416;2022-12-07T14:47:08;13.45;;;6.85;;
28447;SDS011;15675;52.870;-1.416;2022-12-07T14:49:36;15.77;;;7.47;;
28447;SDS011;15675;52.870;-1.416;2022-12-07T14:52:02;17.10;;;7.45;;
28447;SDS011;15675;52.870;-1.416;2022-12-07T14:54:29;12.18;;;6.88;;
28447;SDS011;15675;52.870;-1.416;2022-12-07T14:56:57;12.95;;;7.10;;
28447;SDS011;15675;52.870;-1.416;2022-12-07T14:59:23;21.25;;;8.43;;
28447;SDS011;15675;52.870;-1.416;2022-12-07T15:01:48;11.77;;;6.97;;
28447;SDS011;15675;52.870;-1.416;2022-12-07T15:04:14;16.13;;;7.50;;
28447;SDS011;15675;52.870;-1.416;2022-12-07T15:06:40;17.98;;;6.90;;
28447;SDS011;15675;52.870;-1.416;2022-12-07T15:09:09;11.95;;;7.03;;
28447;SDS011;15675;52.870;-1.416;2022-12-07T15:11:36;14.45;;;7.10;;
28447;SDS011;15675;52.870;-1.416;2022-12-07T15:14:01;13.05;;;7.15;;
28447;SDS011;15675;52.870;-1.416;2022-12-07T15:16:33;13.20;;;6.85;;
28447;SDS011;15675;52.870;-1.416;2022-12-07T15:18:59;13.07;;;7.47;;
28447;SDS011;15675;52.870;-1.416;2022-12-07T15:21:24;13.15;;;6.38;;
28447;SDS011;15675;52.870;-1.416;2022-12-07T15:23:50;13.27;;;6.53;;
28447;SDS011;15675;52.870;-1.416;2022-12-07T15:26:15;11.38;;;5.90;;
28447;SDS011;15675;52.870;-1.416;2022-12-07T15:28:41;13.82;;;6.65;;
28447;SDS011;15675;52.870;-1.416;2022-12-07T15:31:13;14.98;;;6.38;;
28447;SDS011;15675;52.870;-1.416;2022-12-07T15:33:39;11.60;;;5.90;;
28447;SDS011;15675;52.870;-1.416;2022-12-07T15:36:05;10.50;;;6.25;;
28447;SDS011;15675;52.870;-1.416;2022-12-07T15:38:31;11.98;;;5.72;;
28447;SDS011;15675;52.870;-1.416;2022-12-07T15:40:57;10.00;;;5.25;;
28447;SDS011;15675;52.870;-1.416;2022-12-07T15:43:23;11.90;;;5.88;;
28447;SDS011;15675;52.870;-1.416;2022-12-07T15:46:06;12.75;;;5.80;;
28447;SDS011;15675;52.870;-1.416;2022-12-07T15:48:32;13.13;;;5.28;;
28447;SDS011;15675;52.870;-1.416;2022-12-07T15:51:05;10.60;;;5.38;;
28447;SDS011;15675;52.870;-1.416;2022-12-07T15:53:32;12.95;;;6.18;;
28447;SDS011;15675;52.870;-1.416;2022-12-07T15:55:58;20.10;;;5.32;;
28447;SDS011;15675;52.870;-1.416;2022-12-07T15:58:24;10.98;;;5.68;;
28447;SDS011;15675;52.870;-1.416;2022-12-07T16:00:49;12.60;;;5.20;;
28447;SDS011;15675;52.870;-1.416;2022-12-07T16:03:15;17.85;;;6.00;;
28447;SDS011;15675;52.870;-1.416;2022-12-07T16:05:40;14.25;;;5.35;;
28447;SDS011;15675;52.870;-1.416;2022-12-07T16:08:06;10.40;;;5.90;;
28447;SDS011;15675;52.870;-1.416;2022-12-07T16:10:31;10.35;;;5.20;;
28447;SDS011;15675;52.870;-1.416;2022-12-07T16:12:57;12.13;;;5.18;;
28447;SDS011;15675;52.870;-1.416;2022-12-07T16:15:23;14.18;;;5.43;;
28447;SDS011;15675;52.870;-1.416;2022-12-07T16:17:50;10.75;;;5.18;;
28447;SDS011;15675;52.870;-1.416;2022-12-07T16:20:16;10.70;;;5.72;;
28447;SDS011;15675;52.870;-1.416;2022-12-07T16:22:42;13.68;;;6.13;;
28447;SDS011;15675;52.870;-1.416;2022-12-07T16:25:07;10.43;;;5.60;;
28447;SDS011;15675;52.870;-1.416;2022-12-07T16:27:33;9.95;;;5.35;;
28447;SDS011;15675;52.870;-1.416;2022-12-07T16:29:59;14.40;;;5.25;;
28447;SDS011;15675;52.870;-1.416;2022-12-07T16:32:25;12.43;;;6.00;;
28447;SDS011;15675;52.870;-1.416;2022-12-07T16:34:51;15.88;;;6.18;;
28447;SDS011;15675;52.870;-1.416;2022-12-07T16:37:16;10.07;;;6.22;;
28447;SDS011;15675;52.870;-1.416;2022-12-07T16:39:42;17.55;;;6.65;;
28447;SDS011;15675;52.870;-1.416;2022-12-07T16:42:07;12.13;;;6.60;;